Time;durP1;ratioP1;P1;durP2;ratioP2;P2;SDS_P1;SDS_P2;PMS_P1;PMS_P2;Temp;Humidity;BMP_temperature;BMP_pressure;BME280_temperature;BME280_humidity;BME280_pressure;Samples;Min_cycle;Max_cycle;Signal;HPM_P1;HPM_P2
2022/07/13 00:02:03;;;;;;;2.33;0.90;;;18.50;99.90;;;;;;5239106;28;20207;-59
2022/07/13 00:04:37;;;;;;;1.20;1.00;;;18.50;99.90;;;;;;5211413;28;20060;-60
2022/07/13 00:07:13;;;;;;;1.13;1.07;;;18.50;99.90;;;;;;5238846;28;20039;-60
2022/07/13 00:09:49;;;;;;;1.13;1.05;;;18.50;99.90;;;;;;5239508;28;20273;-61
2022/07/13 00:12:22;;;;;;;0.98;0.98;;;18.40;99.90;;;;;;5241309;28;20021;-61
2022/07/13 00:14:56;;;;;;;0.90;0.90;;;18.50;99.90;;;;;;5239596;28;20224;-60
2022/07/13 00:17:27;;;;;;;1.25;1.10;;;18.50;99.90;;;;;;5240505;28;20030;-61
2022/07/13 00:20:03;;;;;;;1.35;1.25;;;18.60;99.90;;;;;;5221792;28;20027;-62
2022/07/13 00:22:39;;;;;;;0.98;0.88;;;18.50;99.90;;;;;;5240195;28;20050;-61
2022/07/13 00:25:11;;;;;;;0.90;0.90;;;18.40;99.90;;;;;;5221744;28;20260;-59
2022/07/13 00:27:42;;;;;;;0.90;0.90;;;18.50;99.90;;;;;;5239377;28;20592;-59
2022/07/13 00:30:13;;;;;;;0.95;0.95;;;18.40;99.90;;;;;;5222541;28;20031;-60
2022/07/13 00:32:47;;;;;;;1.20;1.10;;;18.40;99.90;;;;;;5222763;28;20037;-59
2022/07/13 00:35:21;;;;;;;0.85;0.85;;;18.50;99.90;;;;;;5223521;28;20043;-59
2022/07/13 00:37:52;;;;;;;1.13;1.05;;;18.50;99.90;;;;;;5240177;28;20187;-59
2022/07/13 00:40:26;;;;;;;1.25;1.00;;;18.40;99.90;;;;;;5205989;28;20043;-59
2022/07/13 00:42:59;;;;;;;1.25;1.15;;;18.40;99.90;;;;;;5239445;28;20286;-60
2022/07/13 00:45:31;;;;;;;1.17;1.07;;;18.40;99.90;;;;;;5240241;28;20274;-59
2022/07/13 00:48:08;;;;;;;1.58;1.15;;;18.40;99.90;;;;;;5198239;28;20040;-61
2022/07/13 00:50:40;;;;;;;0.90;0.90;;;18.40;99.90;;;;;;5218422;28;20035;-58
2022/07/13 00:53:11;;;;;;;0.85;0.85;;;18.40;99.90;;;;;;5218756;28;20310;-60
2022/07/13 00:55:44;;;;;;;0.80;0.80;;;18.30;99.90;;;;;;5233861;28;20233;-59
2022/07/13 00:58:18;;;;;;;0.90;0.90;;;18.30;99.90;;;;;;5241230;28;20016;-59
2022/07/13 01:00:50;;;;;;;1.10;1.10;;;18.30;99.90;;;;;;5223056;28;20032;-59
2022/07/13 01:03:21;;;;;;;0.75;0.75;;;18.30;99.90;;;;;;5233660;28;20025;-60
2022/07/13 01:06:01;;;;;;;1.50;1.00;;;18.20;99.90;;;;;;5178311;28;20357;-59
2022/07/13 01:08:40;;;;;;;1.95;1.10;;;18.20;99.90;;;;;;5237127;28;20214;-60
2022/07/13 01:11:12;;;;;;;0.90;0.90;;;18.30;99.90;;;;;;5235956;28;20050;-59
2022/07/13 01:13:49;;;;;;;1.00;1.00;;;18.30;99.90;;;;;;5240278;28;20042;-61
2022/07/13 01:16:22;;;;;;;0.90;0.90;;;18.20;99.90;;;;;;5232773;28;20363;-59
2022/07/13 01:18:54;;;;;;;1.20;1.10;;;18.20;99.90;;;;;;5220176;28;20463;-59
2022/07/13 01:21:27;;;;;;;4.65;1.33;;;18.20;99.90;;;;;;5203400;28;20032;-61
2022/07/13 01:23:58;;;;;;;1.10;1.00;;;18.30;99.90;;;;;;5217363;28;20401;-61
2022/07/13 01:26:35;;;;;;;0.90;0.90;;;18.20;99.90;;;;;;5237312;28;20031;-59
2022/07/13 01:29:11;;;;;;;0.93;0.93;;;18.20;99.90;;;;;;5242078;28;20029;-59
2022/07/13 01:31:42;;;;;;;1.33;1.00;;;18.10;99.90;;;;;;5219747;28;20040;-59
2022/07/13 01:34:14;;;;;;;1.23;1.13;;;18.10;99.90;;;;;;5243695;28;20030;-61
2022/07/13 01:36:54;;;;;;;1.75;1.13;;;18.20;99.90;;;;;;5240802;28;20039;-60
2022/07/13 01:39:28;;;;;;;1.42;0.90;;;18.10;99.90;;;;;;5225747;28;20337;-58
2022/07/13 01:42:00;;;;;;;0.90;0.90;;;18.10;99.90;;;;;;5222728;28;20027;-60
2022/07/13 01:44:31;;;;;;;1.98;0.90;;;18.10;99.90;;;;;;5221565;28;20029;-60
2022/07/13 01:47:09;;;;;;;1.52;1.10;;;18.10;99.90;;;;;;5198508;28;20356;-59
2022/07/13 01:49:42;;;;;;;1.00;1.00;;;18.00;99.90;;;;;;5240117;28;20201;-60
2022/07/13 01:52:15;;;;;;;1.30;1.20;;;18.10;99.90;;;;;;5218527;28;20207;-58
2022/07/13 01:54:46;;;;;;;1.20;1.10;;;18.10;99.90;;;;;;5232810;28;20016;-60
2022/07/13 01:57:17;;;;;;;0.85;0.85;;;18.00;99.90;;;;;;5234541;28;20034;-61
2022/07/13 01:59:49;;;;;;;0.70;0.70;;;18.10;99.90;;;;;;5218990;28;20022;-60
2022/07/13 02:02:22;;;;;;;1.10;1.10;;;18.00;99.90;;;;;;5240144;28;20184;-61
2022/07/13 02:04:57;;;;;;;0.80;0.80;;;18.00;99.90;;;;;;5225667;28;20044;-59
2022/07/13 02:07:29;;;;;;;;;;;17.90;99.90;;;;;;5217519;28;20043;-61
2022/07/13 02:10:08;;;;;;;1.27;1.00;;;17.80;99.90;;;;;;5210453;28;19908;-60
2022/07/13 02:12:44;;;;;;;1.08;1.08;;;17.70;99.90;;;;;;5235986;28;20017;-59
2022/07/13 02:15:18;;;;;;;2.03;1.23;;;17.70;99.90;;;;;;5238658;28;20029;-60
2022/07/13 02:17:49;;;;;;;0.90;0.90;;;17.70;99.90;;;;;;5219311;28;20308;-60
2022/07/13 02:20:23;;;;;;;0.85;0.80;;;17.90;99.90;;;;;;5220964;28;20328;-60
2022/07/13 02:22:54;;;;;;;1.05;1.05;;;17.90;99.90;;;;;;5234478;28;20024;-59
2022/07/13 02:25:25;;;;;;;1.15;1.13;;;18.00;99.90;;;;;;5215643;28;20032;-61
2022/07/13 02:27:59;;;;;;;0.80;0.75;;;18.00;99.90;;;;;;5220715;28;20389;-59
2022/07/13 02:30:33;;;;;;;1.20;1.10;;;18.00;99.90;;;;;;5221066;28;20418;-61
2022/07/13 02:33:07;;;;;;;2.88;1.00;;;18.00;99.90;;;;;;5221132;28;20026;-58
2022/07/13 02:35:38;;;;;;;1.00;1.00;;;18.00;99.90;;;;;;5239476;28;20024;-60
2022/07/13 02:38:12;;;;;;;0.70;0.70;;;17.90;99.90;;;;;;5207173;28;20313;-60
2022/07/13 02:40:47;;;;;;;0.90;0.90;;;18.00;99.90;;;;;;5219632;28;20021;-61
2022/07/13 02:43:18;;;;;;;0.85;0.85;;;18.10;99.90;;;;;;5199765;28;20196;-59
2022/07/13 02:45:49;;;;;;;0.80;0.80;;;18.20;99.90;;;;;;5202879;28;20031;-60
2022/07/13 02:48:23;;;;;;;1.10;1.00;;;18.30;99.90;;;;;;5206453;28;20047;-60
2022/07/13 02:50:54;;;;;;;1.25;0.90;;;18.30;99.90;;;;;;5233429;28;20051;-60
2022/07/13 02:53:30;;;;;;;0.70;0.70;;;18.20;99.90;;;;;;5218635;28;20024;-62
2022/07/13 02:56:09;;;;;;;1.88;0.63;;;18.30;99.90;;;;;;5224712;28;20217;-61
2022/07/13 02:58:45;;;;;;;0.80;0.80;;;18.30;99.90;;;;;;5242409;28;20129;-61
2022/07/13 03:01:19;;;;;;;0.80;0.80;;;18.40;99.90;;;;;;5219587;28;20043;-59
2022/07/13 03:03:57;;;;;;;1.90;0.80;;;18.30;99.90;;;;;;5205148;28;20031;-60
2022/07/13 03:06:28;;;;;;;0.95;0.95;;;18.30;99.90;;;;;;5223988;28;20044;-59
2022/07/13 03:08:59;;;;;;;0.98;0.98;;;18.30;99.90;;;;;;5220815;28;20032;-61
2022/07/13 03:11:32;;;;;;;5.43;1.50;;;18.40;99.90;;;;;;5202964;28;20040;-59
2022/07/13 03:14:04;;;;;;;0.85;0.85;;;18.30;99.90;;;;;;5242483;28;20304;-58
2022/07/13 03:16:35;;;;;;;1.17;1.02;;;18.30;99.90;;;;;;5220779;28;20030;-58
2022/07/13 03:19:07;;;;;;;0.88;0.88;;;18.30;99.90;;;;;;5244766;28;20034;-60
2022/07/13 03:21:40;;;;;;;1.25;0.80;;;18.20;99.90;;;;;;5200614;28;20330;-62
2022/07/13 03:24:16;;;;;;;0.88;0.70;;;18.20;99.90;;;;;;5240946;28;20016;-61
2022/07/13 03:26:51;;;;;;;1.20;0.98;;;18.30;99.90;;;;;;5243287;28;20038;-60
2022/07/13 03:29:25;;;;;;;1.27;0.80;;;18.30;99.90;;;;;;5242629;28;20317;-59
2022/07/13 03:32:01;;;;;;;0.70;0.70;;;18.30;99.90;;;;;;5225868;28;20025;-59
2022/07/13 03:34:35;;;;;;;1.05;0.80;;;18.40;99.90;;;;;;5234961;28;20093;-61
2022/07/13 03:37:11;;;;;;;1.08;1.08;;;18.50;99.90;;;;;;5238660;28;20025;-61
2022/07/13 03:39:45;;;;;;;0.80;0.80;;;18.50;99.90;;;;;;5238943;28;20038;-59
2022/07/13 03:42:22;;;;;;;0.93;0.90;;;18.60;99.90;;;;;;5225712;28;20305;-58
2022/07/13 03:44:53;;;;;;;0.80;0.80;;;18.70;99.90;;;;;;5241970;28;20024;-60
2022/07/13 03:47:24;;;;;;;0.80;0.80;;;18.80;99.90;;;;;;5206150;28;20037;-62
2022/07/13 03:49:59;;;;;;;0.95;0.90;;;18.80;99.90;;;;;;5239450;28;20201;-60
2022/07/13 03:52:30;;;;;;;0.97;0.90;;;18.90;99.90;;;;;;5242692;28;20293;-60
2022/07/13 03:55:02;;;;;;;0.80;0.80;;;19.00;99.90;;;;;;5241887;28;20026;-61
2022/07/13 03:57:33;;;;;;;2.80;0.90;;;19.00;99.90;;;;;;5221811;28;20028;-62
2022/07/13 04:00:10;;;;;;;1.13;0.90;;;19.10;99.90;;;;;;5240231;28;20031;-59
2022/07/13 04:02:41;;;;;;;0.70;0.70;;;19.20;99.90;;;;;;5211303;28;20040;-61
2022/07/13 04:05:12;;;;;;;1.35;0.95;;;19.20;99.90;;;;;;5230732;28;20602;-60
2022/07/13 04:07:43;;;;;;;0.95;0.90;;;19.20;99.90;;;;;;5229060;28;20025;-60
2022/07/13 04:10:18;;;;;;;2.05;1.40;;;19.30;99.90;;;;;;5220528;28;20028;-59
2022/07/13 04:12:51;;;;;;;;;;;19.40;99.90;;;;;;5241634;28;20494;-61
2022/07/13 04:15:23;;;;;;;0.88;0.88;;;19.50;99.90;;;;;;5262027;28;19899;-60
2022/07/13 04:17:55;;;;;;;1.08;1.00;;;19.60;99.90;;;;;;5210455;28;20033;-60
2022/07/13 04:20:26;;;;;;;0.82;0.82;;;19.70;99.90;;;;;;5215477;28;20024;-61
2022/07/13 04:22:57;;;;;;;0.80;0.70;;;19.80;99.90;;;;;;5239507;28;20265;-61
2022/07/13 04:25:28;;;;;;;0.85;0.85;;;19.90;99.90;;;;;;5220088;28;20043;-60
2022/07/13 04:28:02;;;;;;;0.68;0.68;;;20.00;99.90;;;;;;5222055;28;20333;-60
2022/07/13 04:30:33;;;;;;;0.70;0.70;;;20.00;99.90;;;;;;5240445;28;20034;-59
2022/07/13 04:33:05;;;;;;;2.08;1.00;;;20.10;99.90;;;;;;5238050;28;20203;-60
2022/07/13 04:35:38;;;;;;;0.95;0.70;;;20.20;99.90;;;;;;5228645;28;20197;-59
2022/07/13 04:38:09;;;;;;;0.73;0.67;;;20.20;99.90;;;;;;5208220;28;20025;-60
2022/07/13 04:40:41;;;;;;;0.75;0.75;;;20.30;99.90;;;;;;5221260;28;20252;-60
2022/07/13 04:43:12;;;;;;;0.52;0.52;;;20.50;99.90;;;;;;5221307;28;20262;-61
2022/07/13 04:45:43;;;;;;;2.88;0.98;;;20.60;99.90;;;;;;5215299;28;20023;-60
2022/07/13 04:48:17;;;;;;;0.70;0.70;;;20.60;99.90;;;;;;5220866;28;20286;-61
2022/07/13 04:50:51;;;;;;;0.90;0.82;;;20.70;99.90;;;;;;5233669;28;20024;-60
2022/07/13 04:53:22;;;;;;;1.15;0.80;;;20.70;99.90;;;;;;5222466;28;20035;-59
2022/07/13 04:55:56;;;;;;;0.70;0.70;;;20.80;99.90;;;;;;5199717;28;20340;-59
2022/07/13 04:58:30;;;;;;;0.98;0.85;;;20.90;99.90;;;;;;5226538;28;20383;-60
2022/07/13 05:01:04;;;;;;;2.40;0.90;;;20.80;99.90;;;;;;5236515;28;20024;-61
2022/07/13 05:03:36;;;;;;;0.98;0.88;;;20.90;99.90;;;;;;5235788;28;20150;-60
2022/07/13 05:06:10;;;;;;;0.77;0.77;;;20.90;99.90;;;;;;5230709;28;20150;-61
2022/07/13 05:08:44;;;;;;;1.10;1.10;;;20.90;99.90;;;;;;5234236;28;20040;-61
2022/07/13 05:11:15;;;;;;;1.33;1.13;;;20.90;99.90;;;;;;5220446;28;20214;-60
2022/07/13 05:13:49;;;;;;;1.40;0.88;;;20.80;99.90;;;;;;5231106;28;20021;-60
2022/07/13 05:16:25;;;;;;;0.88;0.88;;;20.80;99.90;;;;;;5198469;28;20028;-60
2022/07/13 05:18:59;;;;;;;0.80;0.80;;;21.00;99.90;;;;;;5243087;28;20038;-60
2022/07/13 05:21:30;;;;;;;0.80;0.80;;;21.10;99.90;;;;;;5239426;28;20070;-61
2022/07/13 05:24:04;;;;;;;0.70;0.70;;;21.10;99.90;;;;;;5232807;28;20569;-61
2022/07/13 05:26:38;;;;;;;0.80;0.80;;;21.10;99.90;;;;;;5225381;28;20322;-60
2022/07/13 05:29:09;;;;;;;0.70;0.70;;;21.10;99.90;;;;;;5243984;28;20023;-61
2022/07/13 05:31:43;;;;;;;0.80;0.80;;;21.10;99.90;;;;;;5239899;28;20047;-61
2022/07/13 05:34:14;;;;;;;1.00;0.90;;;20.90;99.90;;;;;;5240996;28;20210;-59
2022/07/13 05:36:46;;;;;;;1.25;1.02;;;20.90;99.90;;;;;;5238690;28;20263;-61
2022/07/13 05:39:19;;;;;;;0.90;0.88;;;20.80;99.90;;;;;;5212188;28;20048;-61
2022/07/13 05:41:53;;;;;;;0.73;0.70;;;20.60;99.90;;;;;;5225845;28;20026;-60
2022/07/13 05:44:29;;;;;;;0.88;0.80;;;20.60;99.90;;;;;;5239086;28;20329;-59
2022/07/13 05:47:01;;;;;;;1.95;1.00;;;20.60;99.90;;;;;;5229739;28;20026;-60
2022/07/13 05:49:32;;;;;;;0.90;0.80;;;20.60;99.90;;;;;;5222750;28;20036;-58
2022/07/13 05:52:06;;;;;;;0.70;0.70;;;20.50;99.90;;;;;;5220986;28;20025;-61
2022/07/13 05:54:38;;;;;;;1.17;0.77;;;20.40;99.90;;;;;;5237837;28;20420;-61
2022/07/13 05:57:09;;;;;;;0.80;0.80;;;20.30;99.90;;;;;;5200823;28;20040;-59
2022/07/13 05:59:42;;;;;;;0.80;0.80;;;20.30;99.90;;;;;;5237921;28;20020;-61
2022/07/13 06:02:14;;;;;;;1.35;0.90;;;20.10;99.90;;;;;;5231511;28;20430;-60
2022/07/13 06:04:46;;;;;;;0.88;0.85;;;20.00;99.90;;;;;;5223680;28;20051;-61
2022/07/13 06:07:17;;;;;;;0.80;0.80;;;20.00;99.90;;;;;;5228197;28;20017;-60
2022/07/13 06:09:49;;;;;;;0.90;0.90;;;19.90;99.90;;;;;;5233773;28;20276;-60
2022/07/13 06:12:20;;;;;;;0.80;0.80;;;19.90;99.90;;;;;;5240612;28;20026;-61
2022/07/13 06:14:54;;;;;;;1.10;0.90;;;19.90;99.90;;;;;;5221408;28;20364;-60
2022/07/13 06:17:25;;;;;;;1.05;0.95;;;20.10;99.90;;;;;;5221818;28;20028;-60
2022/07/13 06:19:59;;;;;;;1.77;1.10;;;20.50;99.90;;;;;;5235984;28;20028;-61
2022/07/13 06:22:31;;;;;;;1.73;0.93;;;21.00;99.90;;;;;;5236154;28;20020;-60
2022/07/13 06:25:05;;;;;;;2.92;1.10;;;21.40;99.90;;;;;;5231543;28;20024;-61
2022/07/13 06:27:37;;;;;;;1.27;0.80;;;21.70;99.90;;;;;;5242743;28;20047;-60
2022/07/13 06:30:09;;;;;;;0.73;0.73;;;21.90;99.90;;;;;;5224935;28;20032;-60
2022/07/13 06:32:40;;;;;;;1.73;1.63;;;22.10;99.90;;;;;;5244181;28;20225;-61
2022/07/13 06:35:17;;;;;;;0.98;0.90;;;22.40;99.90;;;;;;5212069;28;20042;-61
2022/07/13 06:37:48;;;;;;;2.33;0.93;;;22.80;99.90;;;;;;5242433;28;20032;-61
2022/07/13 06:40:22;;;;;;;1.25;0.90;;;23.00;99.90;;;;;;5243240;28;20023;-61
2022/07/13 06:42:54;;;;;;;1.40;1.10;;;22.90;99.90;;;;;;5225591;28;20032;-59
2022/07/13 06:45:25;;;;;;;0.90;0.68;;;22.80;99.90;;;;;;5223392;28;20314;-60
2022/07/13 06:47:57;;;;;;;1.30;0.80;;;22.90;99.90;;;;;;5247881;28;20016;-61
2022/07/13 06:50:28;;;;;;;1.15;0.98;;;22.90;99.90;;;;;;5244727;28;20024;-61
2022/07/13 06:53:00;;;;;;;0.90;0.77;;;23.00;99.90;;;;;;5228189;28;20024;-62
2022/07/13 06:55:34;;;;;;;0.80;0.70;;;23.30;99.90;;;;;;5226229;28;20313;-61
2022/07/13 06:58:05;;;;;;;1.30;1.20;;;23.40;99.90;;;;;;5244427;28;20016;-61
2022/07/13 07:00:36;;;;;;;0.90;0.82;;;23.60;99.90;;;;;;5245097;28;20032;-62
2022/07/13 07:03:07;;;;;;;0.65;0.65;;;23.40;99.90;;;;;;5210157;28;20028;-61
2022/07/13 07:05:39;;;;;;;0.80;0.75;;;23.70;99.90;;;;;;5227266;28;20055;-61
2022/07/13 07:08:11;;;;;;;0.88;0.85;;;23.60;99.90;;;;;;5240117;28;20031;-60
2022/07/13 07:10:42;;;;;;;0.73;0.73;;;23.30;99.90;;;;;;5226766;28;20024;-61
2022/07/13 07:13:14;;;;;;;0.70;0.70;;;23.40;99.90;;;;;;5226672;28;20222;-60
2022/07/13 07:15:46;;;;;;;1.92;0.90;;;23.60;99.90;;;;;;5243457;28;20016;-61
2022/07/13 07:18:24;;;;;;;1.30;0.70;;;23.50;99.90;;;;;;5242056;28;20325;-59
2022/07/13 07:21:00;;;;;;;0.80;0.80;;;23.60;99.90;;;;;;5245633;28;20020;-60
2022/07/13 07:23:34;;;;;;;1.05;0.90;;;23.80;99.90;;;;;;5220254;28;20031;-60
2022/07/13 07:26:05;;;;;;;0.80;0.80;;;23.80;99.90;;;;;;5226384;28;20205;-59
2022/07/13 07:28:36;;;;;;;1.40;0.70;;;23.50;99.90;;;;;;5239167;28;20036;-59
2022/07/13 07:31:08;;;;;;;0.70;0.70;;;23.90;99.90;;;;;;5254252;28;20028;-59
2022/07/13 07:33:44;;;;;;;1.10;1.00;;;24.10;99.90;;;;;;5230266;28;20042;-58
2022/07/13 07:36:17;;;;;;;0.80;0.80;;;24.20;99.90;;;;;;5236016;28;20027;-59
2022/07/13 07:38:51;;;;;;;0.82;0.70;;;24.20;99.90;;;;;;5241927;28;20034;-60
2022/07/13 07:41:22;;;;;;;1.50;0.50;;;24.50;99.90;;;;;;5232706;28;20035;-59
2022/07/13 07:43:55;;;;;;;0.80;0.80;;;24.60;99.90;;;;;;5241227;28;20028;-60
2022/07/13 07:46:29;;;;;;;2.38;1.00;;;24.50;99.90;;;;;;5241809;28;20031;-59
2022/07/13 07:49:03;;;;;;;0.90;0.90;;;24.70;99.90;;;;;;5260667;28;20048;-61
2022/07/13 07:51:34;;;;;;;0.70;0.70;;;24.80;99.90;;;;;;5243397;28;20182;-60
2022/07/13 07:54:07;;;;;;;0.80;0.80;;;24.80;99.90;;;;;;5255536;28;20046;-60
2022/07/13 07:56:44;;;;;;;0.87;0.80;;;24.80;99.90;;;;;;5281897;28;20027;-59
2022/07/13 07:59:16;;;;;;;0.80;0.80;;;24.40;99.90;;;;;;5279475;28;20154;-61
2022/07/13 08:01:48;;;;;;;0.80;0.80;;;24.50;99.90;;;;;;5261131;28;20032;-58
2022/07/13 08:04:19;;;;;;;0.77;0.77;;;24.40;99.90;;;;;;5268897;28;20444;-60
2022/07/13 08:06:50;;;;;;;0.85;0.85;;;24.50;99.90;;;;;;5261044;28;20016;-59
2022/07/13 08:09:27;;;;;;;0.90;0.90;;;24.60;99.90;;;;;;5227611;28;20044;-59
2022/07/13 08:12:02;;;;;;;0.80;0.80;;;24.70;99.90;;;;;;5241138;28;20027;-59
2022/07/13 08:14:36;;;;;;;1.00;0.88;;;25.20;99.90;;;;;;5254901;28;20266;-60
2022/07/13 08:17:10;;;;;;;;;;;25.40;99.90;;;;;;5238383;28;20021;-60
2022/07/13 08:19:42;;;;;;;1.00;0.90;;;24.90;99.90;;;;;;5230045;28;20154;-59
2022/07/13 08:22:13;;;;;;;1.02;0.90;;;24.80;99.90;;;;;;5258654;28;20032;-60
2022/07/13 08:24:44;;;;;;;1.33;1.00;;;24.90;99.90;;;;;;5253579;28;20208;-61
2022/07/13 08:27:15;;;;;;;1.25;0.80;;;24.90;99.90;;;;;;5253398;28;20225;-59
2022/07/13 08:29:50;;;;;;;1.67;1.58;;;24.90;99.90;;;;;;5257418;28;20043;-59
2022/07/13 08:32:21;;;;;;;0.60;0.60;;;25.00;99.90;;;;;;5228263;28;20021;-59
2022/07/13 08:40:41;;;;;;;0.60;0.60;;;24.90;99.90;;;;;;5223863;28;20032;-60
2022/07/13 08:43:12;;;;;;;0.70;0.70;;;25.10;99.90;;;;;;5253658;28;20017;-59
2022/07/13 08:45:46;;;;;;;1.13;0.70;;;25.10;99.90;;;;;;5250920;28;20024;-61
2022/07/13 08:48:25;;;;;;;0.73;0.73;;;25.10;99.90;;;;;;5220357;28;20033;-59
2022/07/13 08:50:56;;;;;;;2.58;0.98;;;25.30;99.90;;;;;;5235717;28;20033;-59
2022/07/13 08:53:30;;;;;;;0.88;0.88;;;25.00;99.90;;;;;;5227136;28;20028;-59
2022/07/13 08:56:26;;;;;;;0.68;0.68;;;25.10;99.90;;;;;;5222033;28;20210;-59
2022/07/13 08:59:00;;;;;;;0.60;0.60;;;25.40;99.90;;;;;;5259153;28;20024;-60
2022/07/13 09:01:34;;;;;;;1.40;0.77;;;25.80;99.90;;;;;;5254634;28;20197;-59
2022/07/13 09:04:11;;;;;;;1.20;1.10;;;25.70;99.90;;;;;;5229310;28;20259;-60
2022/07/13 09:06:48;;;;;;;1.13;0.70;;;26.00;99.90;;;;;;5191720;28;20264;-61
2022/07/13 09:09:31;;;;;;;0.98;0.95;;;25.80;99.90;;;;;;5222574;28;20042;-60
2022/07/13 09:12:19;;;;;;;3.22;1.10;;;26.00;99.90;;;;;;5220380;28;20311;-62
2022/07/13 09:14:54;;;;;;;0.70;0.70;;;26.00;99.90;;;;;;5230608;28;20029;-60
2022/07/13 09:17:36;;;;;;;1.02;0.70;;;26.30;99.90;;;;;;5219791;28;20021;-61
2022/07/13 09:20:10;;;;;;;0.75;0.63;;;26.50;99.90;;;;;;5237262;28;20186;-61
2022/07/13 09:22:48;;;;;;;1.25;0.77;;;26.40;99.90;;;;;;5254244;28;20026;-59
2022/07/13 09:25:34;;;;;;;0.77;0.77;;;26.30;99.90;;;;;;5243596;28;20035;-59
2022/07/13 09:28:16;;;;;;;3.60;1.23;;;26.40;99.90;;;;;;5206987;28;20040;-62
2022/07/13 09:30:58;;;;;;;0.80;0.80;;;26.30;99.90;;;;;;5237989;28;20214;-60
2022/07/13 09:33:38;;;;;;;0.80;0.80;;;26.30;99.90;;;;;;5217642;28;20040;-62
2022/07/13 09:36:19;;;;;;;1.08;1.00;;;26.30;99.90;;;;;;5241070;28;20032;-61
2022/07/13 09:38:56;;;;;;;0.82;0.82;;;26.40;99.90;;;;;;5236403;28;20020;-61
2022/07/13 09:41:27;;;;;;;1.00;0.80;;;26.30;99.90;;;;;;5237223;28;20027;-60
2022/07/13 09:47:03;;;;;;;0.70;0.70;;;26.90;99.90;;;;;;5238318;28;20038;-60
2022/07/13 09:49:40;;;;;;;1.10;0.80;;;26.90;99.90;;;;;;5236634;28;20032;-60
2022/07/13 09:52:16;;;;;;;0.70;0.70;;;26.90;99.90;;;;;;5236926;28;20693;-61
2022/07/13 09:54:51;;;;;;;0.60;0.60;;;27.40;99.90;;;;;;5217903;28;20016;-61
2022/07/13 09:57:22;;;;;;;;;;;27.50;99.90;;;;;;5237035;28;20036;-61
2022/07/13 09:59:56;;;;;;;0.70;0.70;;;27.50;99.90;;;;;;5219823;28;19912;-61
2022/07/13 10:02:31;;;;;;;0.80;0.80;;;27.30;99.90;;;;;;5219201;28;20127;-61
2022/07/13 10:05:03;;;;;;;0.77;0.77;;;26.90;99.90;;;;;;5198931;28;20063;-61
2022/07/13 10:07:37;;;;;;;0.70;0.70;;;26.80;99.90;;;;;;5213337;28;20229;-61
2022/07/13 10:10:12;;;;;;;0.70;0.70;;;27.40;99.90;;;;;;5238326;28;20024;-62
2022/07/13 10:12:44;;;;;;;0.80;0.80;;;27.50;99.90;;;;;;5221715;28;20034;-61
2022/07/13 10:15:18;;;;;;;1.35;0.75;;;27.20;99.90;;;;;;5220482;28;20039;-62
2022/07/13 10:17:55;;;;;;;1.15;0.80;;;28.00;99.90;;;;;;5238627;28;20161;-60
2022/07/13 10:20:31;;;;;;;1.38;0.85;;;27.80;99.90;;;;;;5237367;28;20436;-61
2022/07/13 10:23:05;;;;;;;1.55;0.90;;;27.90;99.90;;;;;;5218417;28;20024;-61
2022/07/13 10:25:45;;;;;;;1.10;1.00;;;27.70;99.90;;;;;;5238538;28;20016;-61
2022/07/13 10:28:18;;;;;;;0.80;0.80;;;27.50;99.90;;;;;;5220602;28;20185;-60
2022/07/13 10:30:50;;;;;;;0.82;0.82;;;27.60;99.90;;;;;;5220404;28;20223;-61
2022/07/13 10:33:24;;;;;;;1.30;0.95;;;27.60;99.90;;;;;;5201897;28;20050;-62
2022/07/13 10:35:58;;;;;;;0.95;0.88;;;27.90;99.90;;;;;;5238425;28;20020;-61
2022/07/13 10:38:29;;;;;;;0.80;0.70;;;28.20;99.90;;;;;;5237805;28;20020;-62
2022/07/13 10:41:23;;;;;;;0.50;0.50;;;28.30;99.90;;;;;;5241329;28;20501;-61
2022/07/13 10:44:18;;;;;;;0.87;0.87;;;28.50;99.90;;;;;;5244843;28;20315;-60
2022/07/13 10:46:50;;;;;;;1.42;0.63;;;29.10;99.90;;;;;;5236105;28;20028;-60
2022/07/13 10:49:34;;;;;;;0.70;0.70;;;29.70;99.90;;;;;;5227066;28;20047;-61
2022/07/13 10:52:21;;;;;;;0.70;0.70;;;30.30;99.90;;;;;;5236332;28;20027;-61
2022/07/13 10:55:05;;;;;;;0.73;0.73;;;30.40;99.90;;;;;;5234471;28;20028;-61
2022/07/13 10:57:44;;;;;;;1.25;0.80;;;30.90;99.90;;;;;;5226830;28;20221;-60
2022/07/13 11:00:40;;;;;;;0.60;0.60;;;30.90;99.90;;;;;;5238845;28;20235;-62
2022/07/13 11:03:37;;;;;;;0.75;0.75;;;30.80;99.90;;;;;;5241947;28;20021;-60
2022/07/13 11:06:13;;;;;;;0.80;0.80;;;30.70;99.90;;;;;;5238153;28;20074;-61
2022/07/13 11:09:20;;;;;;;0.77;0.77;;;31.20;99.90;;;;;;5255295;28;20204;-61
2022/07/13 11:11:55;;;;;;;0.80;0.80;;;31.50;99.90;;;;;;5219444;28;20036;-60
2022/07/13 11:14:42;;;;;;;0.73;0.63;;;31.00;99.90;;;;;;5238782;28;20012;-62
2022/07/13 11:17:17;;;;;;;1.38;0.88;;;30.40;99.90;;;;;;5242578;28;20020;-62
2022/07/13 11:19:52;;;;;;;0.80;0.80;;;31.00;99.90;;;;;;5221914;28;20210;-61
2022/07/13 11:25:47;;;;;;;1.60;0.85;;;30.20;99.90;;;;;;5224476;28;20440;-63
2022/07/13 11:28:31;;;;;;;0.90;0.90;;;30.40;99.90;;;;;;5236892;28;20017;-62
2022/07/13 11:31:03;;;;;;;1.65;0.80;;;31.70;99.90;;;;;;5210806;28;20024;-61
2022/07/13 11:33:34;;;;;;;1.40;0.60;;;31.20;99.90;;;;;;5226815;28;20517;-62
2022/07/13 11:36:12;;;;;;;1.63;0.98;;;31.60;99.90;;;;;;5222983;28;20239;-62
2022/07/13 11:38:43;;;;;;;0.95;0.80;;;31.90;99.90;;;;;;5202960;28;20029;-64
2022/07/13 11:41:23;;;;;;;0.90;0.90;;;32.60;99.90;;;;;;5224620;28;20032;-61
2022/07/13 11:43:57;;;;;;;1.13;0.73;;;33.30;99.90;;;;;;5224454;28;20371;-60
2022/07/13 11:46:28;;;;;;;0.70;0.70;;;32.10;99.90;;;;;;5241872;28;20035;-64
2022/07/13 11:49:05;;;;;;;0.98;0.68;;;31.60;99.90;;;;;;5223553;28;20029;-61
2022/07/13 11:51:43;;;;;;;0.90;0.90;;;32.30;99.90;;;;;;5242052;28;20028;-62
2022/07/13 11:54:22;;;;;;;0.80;0.80;;;31.00;99.90;;;;;;5224492;28;20032;-61
2022/07/13 11:56:56;;;;;;;0.95;0.88;;;30.60;99.90;;;;;;5239525;28;20025;-62
2022/07/13 11:59:42;;;;;;;0.65;0.65;;;31.80;99.90;;;;;;5215584;28;20021;-62
2022/07/13 12:02:14;;;;;;;1.13;0.80;;;31.60;99.90;;;;;;5216280;28;20096;-62
2022/07/13 12:04:49;;;;;;;0.70;0.70;;;31.20;99.90;;;;;;5222251;28;20403;-61
2022/07/13 12:07:30;;;;;;;0.80;0.80;;;31.40;99.90;;;;;;5238281;28;20253;-61
2022/07/13 12:10:06;;;;;;;0.80;0.80;;;31.40;99.90;;;;;;5201642;28;20040;-62
2022/07/13 12:12:41;;;;;;;0.93;0.85;;;31.70;99.90;;;;;;5224751;28;20024;-61
2022/07/13 12:15:19;;;;;;;1.40;0.80;;;31.80;99.90;;;;;;5222271;28;20060;-63
2022/07/13 12:17:53;;;;;;;0.70;0.70;;;31.00;99.90;;;;;;5222508;28;20282;-62
2022/07/13 12:20:24;;;;;;;0.77;0.77;;;30.90;99.90;;;;;;5235342;28;20390;-61
2022/07/13 12:22:57;;;;;;;0.80;0.80;;;30.40;99.90;;;;;;5232997;28;20027;-62
2022/07/13 12:25:32;;;;;;;0.70;0.70;;;30.60;99.90;;;;;;5222305;28;20043;-62
2022/07/13 12:28:10;;;;;;;1.25;0.63;;;30.70;99.90;;;;;;5219692;28;20040;-61
2022/07/13 12:31:01;;;;;;;0.70;0.70;;;30.60;99.90;;;;;;5238620;28;20357;-60
2022/07/13 12:33:42;;;;;;;1.33;0.60;;;30.10;99.90;;;;;;5238830;28;20032;-61
2022/07/13 12:36:14;;;;;;;0.60;0.60;;;30.40;99.90;;;;;;5239799;28;20042;-60
2022/07/13 12:39:03;;;;;;;0.75;0.60;;;29.60;99.90;;;;;;5240373;28;20089;-61
2022/07/13 12:41:41;;;;;;;0.80;0.80;;;29.10;99.90;;;;;;5243081;28;20205;-61
2022/07/13 12:44:12;;;;;;;1.88;1.00;;;29.50;99.90;;;;;;5222327;28;20027;-61
2022/07/13 12:46:54;;;;;;;0.60;0.60;;;29.40;99.90;;;;;;5208964;28;20038;-62
2022/07/13 12:49:34;;;;;;;0.60;0.60;;;29.40;99.90;;;;;;5234715;28;20017;-62
2022/07/13 12:52:14;;;;;;;1.40;0.82;;;29.00;99.90;;;;;;5224086;28;20036;-61
2022/07/13 12:54:57;;;;;;;0.70;0.70;;;29.10;99.90;;;;;;5241011;28;20315;-62
2022/07/13 12:57:36;;;;;;;0.70;0.70;;;29.10;99.90;;;;;;5217604;28;20326;-61
2022/07/13 13:00:14;;;;;;;1.17;0.75;;;28.80;99.90;;;;;;5220584;28;20033;-61
2022/07/13 13:02:45;;;;;;;1.70;0.70;;;29.10;99.90;;;;;;5233305;28;20021;-60
2022/07/13 13:05:19;;;;;;;0.88;0.80;;;30.60;99.90;;;;;;5228852;28;20171;-62
2022/07/13 13:07:52;;;;;;;2.15;0.80;;;31.70;99.90;;;;;;5239639;28;20024;-61
2022/07/13 13:10:26;;;;;;;0.60;0.60;;;31.60;99.90;;;;;;5217955;28;20063;-62
2022/07/13 13:12:57;;;;;;;2.90;0.93;;;31.30;99.90;;;;;;5217111;28;20021;-62
2022/07/13 13:15:28;;;;;;;1.98;0.82;;;32.40;99.90;;;;;;5222523;28;20033;-62
2022/07/13 13:18:02;;;;;;;0.82;0.70;;;33.20;99.90;;;;;;5218436;28;20225;-62
2022/07/13 13:20:35;;;;;;;1.15;0.80;;;33.70;99.90;;;;;;5219298;28;20024;-62
2022/07/13 13:23:08;;;;;;;0.80;0.80;;;33.30;99.90;;;;;;5218858;28;20285;-64
2022/07/13 13:25:44;;;;;;;0.65;0.65;;;33.70;99.90;;;;;;5218341;28;20017;-60
2022/07/13 13:28:15;;;;;;;0.70;0.65;;;32.60;99.90;;;;;;5218364;28;20338;-61
2022/07/13 13:30:48;;;;;;;0.73;0.73;;;32.10;99.90;;;;;;5185769;28;20033;-61
2022/07/13 13:33:24;;;;;;;0.55;0.55;;;31.70;99.90;;;;;;5208880;28;20025;-61
2022/07/13 13:35:58;;;;;;;0.88;0.80;;;31.60;99.90;;;;;;5220516;28;20029;-62
2022/07/13 13:38:29;;;;;;;0.60;0.60;;;31.10;99.90;;;;;;5234528;28;20027;-63